Time;durP1;ratioP1;P1;durP2;ratioP2;P2;SDS_P1;SDS_P2;PMS_P1;PMS_P2;Temp;Humidity;BMP_temperature;BMP_pressure;BME280_temperature;BME280_humidity;BME280_pressure;Samples;Min_cycle;Max_cycle;Signal;HPM_P1;HPM_P2
2021/06/28 00:01:20;;;;;;;3.28;2.70;;;22.70;99.90;;;;;;5081046;28;20082;-71
2021/06/28 00:03:46;;;;;;;3.00;2.80;;;22.60;99.90;;;;;;5092645;28;20365;-71
2021/06/28 00:06:13;;;;;;;2.75;2.55;;;22.70;99.90;;;;;;5094072;28;20039;-67
2021/06/28 00:08:39;;;;;;;3.10;2.80;;;22.60;99.90;;;;;;5058836;28;20079;-72
2021/06/28 00:11:06;;;;;;;2.90;2.60;;;22.60;99.90;;;;;;5073760;28;20424;-68
2021/06/28 00:13:33;;;;;;;3.30;3.00;;;22.60;99.90;;;;;;5073190;28;20036;-68
2021/06/28 00:15:59;;;;;;;3.90;3.10;;;22.60;99.90;;;;;;5077257;28;20040;-73
2021/06/28 00:18:24;;;;;;;3.00;2.78;;;22.60;99.90;;;;;;5077045;28;20400;-71
2021/06/28 00:20:50;;;;;;;2.90;2.70;;;22.60;99.90;;;;;;5073455;28;20067;-71
2021/06/28 00:23:16;;;;;;;3.40;3.13;;;22.60;99.90;;;;;;5072924;28;20024;-70
2021/06/28 00:25:42;;;;;;;3.17;2.80;;;22.60;99.90;;;;;;5093010;28;20443;-72
2021/06/28 00:28:09;;;;;;;2.78;2.58;;;22.60;99.90;;;;;;5092954;28;20380;-67
2021/06/28 00:30:38;;;;;;;4.13;2.92;;;22.60;99.90;;;;;;5053435;28;20096;-68
2021/06/28 00:33:05;;;;;;;3.08;2.78;;;22.50;99.90;;;;;;5052104;28;20029;-72
2021/06/28 00:35:31;;;;;;;2.90;2.70;;;22.60;99.90;;;;;;5071956;28;20508;-66
2021/06/28 00:37:57;;;;;;;2.85;2.60;;;22.50;99.90;;;;;;5078082;28;20059;-66
2021/06/28 00:40:23;;;;;;;2.63;2.42;;;22.50;99.90;;;;;;5091489;28;20021;-66
2021/06/28 00:42:49;;;;;;;2.88;2.20;;;22.50;99.90;;;;;;5093112;28;20035;-66
2021/06/28 00:45:24;;;;;;;3.10;2.80;;;22.50;99.90;;;;;;5084494;28;20023;-66
2021/06/28 00:47:51;;;;;;;2.83;2.53;;;22.50;99.90;;;;;;5075746;28;20055;-67
2021/06/28 00:50:19;;;;;;;3.22;2.92;;;22.50;99.90;;;;;;5073018;28;20025;-68
2021/06/28 00:52:48;;;;;;;2.95;2.65;;;22.50;99.90;;;;;;5073298;28;20029;-71
2021/06/28 00:55:14;;;;;;;2.95;2.60;;;22.50;99.90;;;;;;5072913;28;20021;-72
2021/06/28 00:57:40;;;;;;;2.80;2.60;;;22.50;99.90;;;;;;5072744;28;20201;-69
2021/06/28 01:00:08;;;;;;;3.00;2.70;;;22.50;99.90;;;;;;5072673;28;20048;-73
2021/06/28 01:02:35;;;;;;;3.20;2.80;;;22.50;99.90;;;;;;5074413;28;20362;-68
2021/06/28 01:05:04;;;;;;;2.50;2.30;;;22.50;99.90;;;;;;5092936;28;20032;-71
2021/06/28 01:07:30;;;;;;;2.90;2.63;;;22.40;99.90;;;;;;5092112;28;20552;-68
2021/06/28 01:09:56;;;;;;;2.95;2.50;;;22.50;99.90;;;;;;5092342;28;20040;-72
2021/06/28 01:12:21;;;;;;;2.40;2.20;;;22.40;99.90;;;;;;5091266;28;20028;-72
2021/06/28 01:14:47;;;;;;;2.75;2.55;;;22.40;99.90;;;;;;5086431;28;20017;-68
2021/06/28 01:17:13;;;;;;;3.67;2.60;;;22.40;99.90;;;;;;5082162;28;20028;-69
2021/06/28 01:19:49;;;;;;;2.95;2.67;;;22.40;99.90;;;;;;5073369;28;20108;-72
2021/06/28 01:22:16;;;;;;;2.95;2.70;;;22.40;99.90;;;;;;5076950;28;20034;-70
2021/06/28 01:24:42;;;;;;;2.92;2.67;;;22.40;99.90;;;;;;5071499;28;20021;-68
2021/06/28 01:27:08;;;;;;;3.33;2.70;;;22.40;99.90;;;;;;5072042;28;20029;-67
2021/06/28 01:29:33;;;;;;;2.80;2.60;;;22.40;99.90;;;;;;5084024;28;20077;-71
2021/06/28 01:31:59;;;;;;;2.50;2.30;;;22.40;99.90;;;;;;5092562;28;20161;-71
2021/06/28 01:34:24;;;;;;;2.47;2.28;;;22.40;99.90;;;;;;5091816;28;20036;-68
2021/06/28 01:36:50;;;;;;;2.63;2.40;;;22.30;99.90;;;;;;5092421;28;20020;-66
2021/06/28 01:39:16;;;;;;;3.58;2.83;;;22.30;99.90;;;;;;5091976;28;20028;-69
2021/06/28 01:41:41;;;;;;;2.90;2.70;;;22.30;99.90;;;;;;5088497;28;20024;-69
2021/06/28 01:44:07;;;;;;;2.85;2.63;;;22.30;99.90;;;;;;5084358;28;20033;-68
2021/06/28 01:46:32;;;;;;;3.13;2.80;;;22.30;99.90;;;;;;5080423;28;20488;-66
2021/06/28 01:48:58;;;;;;;2.58;2.38;;;22.30;99.90;;;;;;5071896;28;20032;-69
2021/06/28 01:51:24;;;;;;;3.45;2.80;;;22.30;99.90;;;;;;5071797;28;20024;-71
2021/06/28 01:53:49;;;;;;;3.47;2.47;;;22.30;99.90;;;;;;5091397;28;20032;-68
2021/06/28 01:56:15;;;;;;;2.85;2.50;;;22.30;99.90;;;;;;5092487;28;20035;-70
2021/06/28 01:58:41;;;;;;;2.70;2.40;;;22.20;99.90;;;;;;5091407;28;20035;-71
2021/06/28 02:01:07;;;;;;;2.33;2.13;;;22.30;99.90;;;;;;5082572;28;20051;-70
2021/06/28 02:03:37;;;;;;;2.70;2.50;;;22.20;99.90;;;;;;5071430;28;20119;-65
2021/06/28 02:06:03;;;;;;;2.55;2.35;;;22.20;99.90;;;;;;5071920;28;20059;-65
2021/06/28 02:08:31;;;;;;;2.58;2.38;;;22.20;99.90;;;;;;5071287;28;20033;-66
2021/06/28 02:11:00;;;;;;;2.90;2.60;;;22.20;99.90;;;;;;5071591;28;20025;-67
2021/06/28 02:13:32;;;;;;;2.85;2.50;;;22.20;99.90;;;;;;5071185;28;20536;-66
2021/06/28 02:15:57;;;;;;;3.45;2.30;;;22.20;99.90;;;;;;5079071;28;20063;-66
2021/06/28 02:18:26;;;;;;;2.40;2.20;;;22.20;99.90;;;;;;5073961;28;20051;-67
2021/06/28 02:20:53;;;;;;;3.05;2.20;;;22.20;99.90;;;;;;5070237;28;20020;-67
2021/06/28 02:23:21;;;;;;;3.38;2.50;;;22.20;99.90;;;;;;5072030;28;20070;-66
2021/06/28 02:25:56;;;;;;;2.88;2.40;;;22.20;99.90;;;;;;5071834;28;20028;-69
2021/06/28 02:28:23;;;;;;;3.85;2.50;;;22.20;99.90;;;;;;5076341;28;20031;-67
2021/06/28 02:30:49;;;;;;;2.47;2.25;;;22.10;99.90;;;;;;5091888;28;20095;-66
2021/06/28 02:33:15;;;;;;;2.42;2.22;;;22.10;99.90;;;;;;5090303;28;20107;-69
2021/06/28 02:35:41;;;;;;;2.55;2.35;;;22.10;99.90;;;;;;5091305;28;20119;-69
2021/06/28 02:38:07;;;;;;;2.65;2.45;;;22.10;99.90;;;;;;5091562;28;20031;-67
2021/06/28 02:40:32;;;;;;;2.30;2.10;;;22.00;99.90;;;;;;5074198;28;20046;-71
2021/06/28 02:42:58;;;;;;;2.50;2.30;;;22.00;99.90;;;;;;5071061;28;20031;-69
2021/06/28 02:45:24;;;;;;;2.33;2.13;;;22.00;99.90;;;;;;5073070;28;20047;-68
2021/06/28 02:47:49;;;;;;;2.47;2.28;;;22.00;99.90;;;;;;5073502;28;20391;-66
2021/06/28 02:50:15;;;;;;;3.42;2.35;;;22.00;99.90;;;;;;5075967;28;20380;-69
2021/06/28 02:52:42;;;;;;;2.80;2.13;;;22.00;99.90;;;;;;5075206;28;20028;-68
2021/06/28 02:55:09;;;;;;;2.70;2.50;;;22.00;99.90;;;;;;5075378;28;20020;-67
2021/06/28 02:57:35;;;;;;;2.33;2.13;;;22.00;99.90;;;;;;5075197;28;20063;-66
2021/06/28 03:00:04;;;;;;;2.70;2.50;;;21.90;99.90;;;;;;5075190;28;20492;-68
2021/06/28 03:02:30;;;;;;;2.97;2.20;;;21.90;99.90;;;;;;5074914;28;20028;-67
2021/06/28 03:04:55;;;;;;;2.28;2.08;;;22.00;99.90;;;;;;5074968;28;20102;-67
2021/06/28 03:07:21;;;;;;;2.45;2.25;;;21.90;99.90;;;;;;5074848;28;20047;-69
2021/06/28 03:09:47;;;;;;;2.47;2.03;;;21.90;99.90;;;;;;5085387;28;20028;-69
2021/06/28 03:12:12;;;;;;;2.65;2.05;;;21.90;99.90;;;;;;5095234;28;20028;-68
2021/06/28 03:14:39;;;;;;;2.58;2.20;;;21.90;99.90;;;;;;5086774;28;20031;-71
2021/06/28 03:17:05;;;;;;;2.40;2.00;;;21.90;99.90;;;;;;5093419;28;20068;-69
2021/06/28 03:19:31;;;;;;;2.35;2.15;;;21.90;99.90;;;;;;5094896;28;20119;-66
2021/06/28 03:21:56;;;;;;;2.58;2.38;;;21.90;99.90;;;;;;5094481;28;20020;-69
2021/06/28 03:24:22;;;;;;;2.58;2.38;;;21.90;99.90;;;;;;5088246;28;20035;-67
2021/06/28 03:26:48;;;;;;;2.40;2.10;;;21.90;99.90;;;;;;5074622;28;20028;-70
2021/06/28 03:29:13;;;;;;;3.08;2.33;;;21.90;99.90;;;;;;5074497;28;20029;-68
2021/06/28 03:31:39;;;;;;;4.18;2.20;;;21.90;99.90;;;;;;5074321;28;20035;-67
2021/06/28 03:34:05;;;;;;;2.88;2.50;;;21.90;99.90;;;;;;5074560;28;20032;-68
2021/06/28 03:36:30;;;;;;;2.40;2.20;;;21.90;99.90;;;;;;5074434;28;20021;-66
2021/06/28 03:38:56;;;;;;;2.63;2.25;;;21.90;99.90;;;;;;5077635;28;20480;-66
2021/06/28 03:41:22;;;;;;;2.53;2.33;;;21.90;99.90;;;;;;5093006;28;20020;-66
2021/06/28 03:43:48;;;;;;;2.60;2.40;;;21.80;99.90;;;;;;5093322;28;20054;-66
2021/06/28 03:46:14;;;;;;;2.90;2.60;;;21.90;99.90;;;;;;5077687;28;20016;-65
2021/06/28 03:48:39;;;;;;;3.60;2.78;;;21.80;99.90;;;;;;5073641;28;20070;-66
2021/06/28 03:51:05;;;;;;;2.70;2.30;;;21.80;99.90;;;;;;5074251;28;20024;-67
2021/06/28 03:53:31;;;;;;;3.17;2.50;;;21.80;99.90;;;;;;5074130;28;20028;-68
2021/06/28 03:55:57;;;;;;;3.30;2.78;;;21.90;99.90;;;;;;5074167;28;20024;-66
2021/06/28 03:58:23;;;;;;;2.78;2.55;;;21.90;99.90;;;;;;5072688;28;20051;-67
2021/06/28 04:00:48;;;;;;;2.60;2.40;;;21.90;99.90;;;;;;5074184;28;20024;-67
2021/06/28 04:03:15;;;;;;;3.97;2.90;;;21.90;99.90;;;;;;5074031;28;20377;-67
2021/06/28 04:05:41;;;;;;;4.18;2.75;;;21.90;99.90;;;;;;5073609;28;20033;-67
2021/06/28 04:08:07;;;;;;;2.88;2.58;;;21.90;99.90;;;;;;5073687;28;20040;-67
2021/06/28 04:10:33;;;;;;;2.95;2.53;;;21.80;99.90;;;;;;5089819;28;20066;-66
2021/06/28 04:12:59;;;;;;;3.00;2.70;;;21.80;99.90;;;;;;5093993;28;20024;-69
2021/06/28 04:15:24;;;;;;;3.95;2.60;;;21.80;99.90;;;;;;5077810;28;20025;-69
2021/06/28 04:17:54;;;;;;;2.88;2.58;;;21.80;99.90;;;;;;5073976;28;20405;-70
2021/06/28 04:20:25;;;;;;;3.25;2.95;;;21.80;99.90;;;;;;5074916;28;20028;-70
2021/06/28 04:22:54;;;;;;;2.85;2.65;;;21.80;99.90;;;;;;5073872;28;20113;-67
2021/06/28 04:25:22;;;;;;;3.13;2.70;;;21.80;99.90;;;;;;5073846;28;20484;-70
2021/06/28 04:27:48;;;;;;;3.53;2.97;;;21.80;99.90;;;;;;5071737;28;20127;-72
2021/06/28 04:30:16;;;;;;;3.03;2.72;;;21.80;99.90;;;;;;5073401;28;20362;-68
2021/06/28 04:32:43;;;;;;;3.33;2.60;;;21.80;99.90;;;;;;5073351;28;20020;-67
2021/06/28 04:35:12;;;;;;;4.18;3.05;;;21.80;99.90;;;;;;5085069;28;20357;-68
2021/06/28 04:37:38;;;;;;;3.35;2.60;;;21.80;99.90;;;;;;5073183;28;20402;-72
2021/06/28 04:40:07;;;;;;;4.82;2.83;;;21.80;99.90;;;;;;5075048;28;20030;-67
2021/06/28 04:42:33;;;;;;;3.05;2.55;;;21.80;99.90;;;;;;5072891;28;20078;-67
2021/06/28 04:44:59;;;;;;;2.92;2.63;;;21.80;99.90;;;;;;5072897;28;20025;-66
2021/06/28 04:47:24;;;;;;;3.63;2.67;;;21.80;99.90;;;;;;5073084;28;20033;-70
2021/06/28 04:49:50;;;;;;;3.38;2.80;;;21.80;99.90;;;;;;5079939;28;20024;-67
2021/06/28 04:52:16;;;;;;;3.50;3.10;;;21.80;99.90;;;;;;5073094;28;20028;-68
2021/06/28 04:54:42;;;;;;;2.80;2.60;;;21.80;99.90;;;;;;5071325;28;20028;-68
2021/06/28 04:57:07;;;;;;;3.42;2.58;;;21.80;99.90;;;;;;5072986;28;20020;-68
2021/06/28 04:59:33;;;;;;;3.47;2.97;;;21.80;99.90;;;;;;5073670;28;20033;-70
2021/06/28 05:01:58;;;;;;;3.15;2.72;;;21.80;99.90;;;;;;5073272;28;20027;-73
2021/06/28 05:04:25;;;;;;;2.88;2.65;;;21.80;99.90;;;;;;5076954;28;20464;-69
2021/06/28 05:06:51;;;;;;;3.55;2.72;;;21.70;99.90;;;;;;5072560;28;20426;-66
2021/06/28 05:09:17;;;;;;;3.25;2.95;;;21.70;99.90;;;;;;5080306;28;20035;-66
2021/06/28 05:11:43;;;;;;;3.28;2.75;;;21.70;99.90;;;;;;5092468;28;20020;-66
2021/06/28 05:14:08;;;;;;;5.40;2.97;;;21.70;99.90;;;;;;5081441;28;20028;-67
2021/06/28 05:16:34;;;;;;;3.03;2.67;;;21.80;99.90;;;;;;5087243;28;20023;-69
2021/06/28 05:19:00;;;;;;;3.85;2.40;;;21.80;99.90;;;;;;5092430;28;20028;-66
2021/06/28 05:21:25;;;;;;;3.70;2.80;;;21.80;99.90;;;;;;5092794;28;20103;-66
2021/06/28 05:23:51;;;;;;;4.70;2.65;;;21.80;99.90;;;;;;5090843;28;20036;-66
2021/06/28 05:26:17;;;;;;;3.38;2.70;;;21.80;99.90;;;;;;5086129;28;20031;-66
2021/06/28 05:28:43;;;;;;;2.83;2.63;;;21.80;99.90;;;;;;5072703;28;20499;-67
2021/06/28 05:31:08;;;;;;;4.28;2.60;;;21.80;99.90;;;;;;5092200;28;20020;-66
2021/06/28 05:33:34;;;;;;;4.28;2.50;;;21.80;99.90;;;;;;5084607;28;20104;-65
2021/06/28 05:35:59;;;;;;;3.55;2.63;;;21.80;99.90;;;;;;5084440;28;20025;-66
2021/06/28 05:38:25;;;;;;;3.05;2.60;;;21.80;99.90;;;;;;5072151;28;20017;-68
2021/06/28 05:40:51;;;;;;;4.65;2.70;;;21.80;99.90;;;;;;5076872;28;20085;-67
2021/06/28 05:43:17;;;;;;;2.92;2.42;;;21.80;99.90;;;;;;5089629;28;20028;-67
2021/06/28 05:45:42;;;;;;;3.13;2.83;;;21.80;99.90;;;;;;5071635;28;20040;-66
2021/06/28 05:48:08;;;;;;;3.03;2.30;;;21.90;99.90;;;;;;5090569;28;20036;-69
2021/06/28 05:50:34;;;;;;;3.67;2.90;;;21.90;99.90;;;;;;5090073;28;20468;-67
2021/06/28 05:53:02;;;;;;;2.92;2.63;;;21.90;99.90;;;;;;5080991;28;20158;-68
2021/06/28 05:55:28;;;;;;;3.70;2.70;;;21.90;99.90;;;;;;5082834;28;20028;-72
2021/06/28 05:57:54;;;;;;;3.30;2.70;;;21.90;99.90;;;;;;5081350;28;20028;-70
2021/06/28 06:00:22;;;;;;;2.80;2.60;;;21.90;99.90;;;;;;5091960;28;20043;-68
2021/06/28 06:02:48;;;;;;;5.03;2.88;;;21.90;99.90;;;;;;5089020;28;20110;-70
2021/06/28 06:05:14;;;;;;;3.65;2.60;;;21.90;99.90;;;;;;5076797;28;20032;-72
2021/06/28 06:07:40;;;;;;;4.22;2.40;;;21.90;99.90;;;;;;5070882;28;20039;-71
2021/06/28 06:10:11;;;;;;;3.25;2.70;;;21.90;99.90;;;;;;5081609;28;20036;-74
2021/06/28 06:12:37;;;;;;;3.38;2.70;;;21.90;99.90;;;;;;5086363;28;20114;-71
2021/06/28 06:15:06;;;;;;;4.50;2.45;;;21.90;99.90;;;;;;5071528;28;20078;-72
2021/06/28 06:17:32;;;;;;;3.22;2.88;;;21.90;99.90;;;;;;5071288;28;20381;-71
2021/06/28 06:19:59;;;;;;;4.25;2.38;;;21.90;99.90;;;;;;5090109;28;20036;-70
2021/06/28 06:22:24;;;;;;;4.13;2.03;;;22.00;99.90;;;;;;5090817;28;20032;-72
2021/06/28 06:24:50;;;;;;;5.00;2.47;;;22.00;99.90;;;;;;5088766;28;20553;-71
2021/06/28 06:27:16;;;;;;;4.95;2.63;;;22.00;99.90;;;;;;5091475;28;20047;-64
2021/06/28 06:29:43;;;;;;;6.53;2.55;;;22.00;99.90;;;;;;5087634;28;20136;-73
2021/06/28 06:32:09;;;;;;;3.65;2.75;;;22.00;99.90;;;;;;5091328;28;20480;-65
2021/06/28 06:34:35;;;;;;;3.88;2.60;;;22.00;99.90;;;;;;5082720;28;20024;-64
2021/06/28 06:37:01;;;;;;;4.45;2.70;;;22.00;99.90;;;;;;5082428;28;20020;-65
2021/06/28 06:39:27;;;;;;;4.53;2.55;;;22.00;99.90;;;;;;5085740;28;20036;-66
2021/06/28 06:41:52;;;;;;;3.22;2.70;;;22.00;99.90;;;;;;5071238;28;20100;-64
2021/06/28 06:44:18;;;;;;;6.10;2.78;;;22.00;99.90;;;;;;5071235;28;20050;-65
2021/06/28 06:46:44;;;;;;;4.45;2.75;;;22.00;99.90;;;;;;5070909;28;20031;-64
2021/06/28 06:49:09;;;;;;;5.07;3.10;;;22.00;99.90;;;;;;5071447;28;20036;-64
2021/06/28 06:51:35;;;;;;;2.90;2.60;;;22.00;99.90;;;;;;5070945;28;20488;-64
2021/06/28 06:54:01;;;;;;;4.28;3.17;;;22.00;99.90;;;;;;5081283;28;20028;-64
2021/06/28 06:56:26;;;;;;;4.15;2.88;;;22.00;99.90;;;;;;5088329;28;20029;-65
2021/06/28 06:58:52;;;;;;;5.03;2.72;;;22.00;99.90;;;;;;5069759;28;20116;-66
2021/06/28 07:01:18;;;;;;;6.00;3.00;;;22.00;99.90;;;;;;5070365;28;20028;-67
2021/06/28 07:03:44;;;;;;;8.02;3.22;;;22.00;99.90;;;;;;5070618;28;20508;-75
2021/06/28 07:06:10;;;;;;;4.93;3.13;;;22.00;99.90;;;;;;5073488;28;20516;-73
2021/06/28 07:08:37;;;;;;;6.15;2.90;;;22.00;99.90;;;;;;5071882;28;20124;-72
2021/06/28 07:11:06;;;;;;;4.07;2.90;;;22.00;99.90;;;;;;5069234;28;20024;-73
2021/06/28 07:13:31;;;;;;;5.80;2.65;;;22.00;99.90;;;;;;5069098;28;20031;-73
2021/06/28 07:15:57;;;;;;;4.05;2.95;;;22.00;99.90;;;;;;5069674;28;20091;-77
2021/06/28 07:18:22;;;;;;;3.40;3.03;;;22.10;99.90;;;;;;5069764;28;20468;-76
2021/06/28 07:20:48;;;;;;;4.85;3.03;;;22.10;99.90;;;;;;5072256;28;20035;-75
2021/06/28 07:23:14;;;;;;;3.85;2.83;;;22.10;99.90;;;;;;5066924;28;20020;-73
2021/06/28 07:25:40;;;;;;;3.80;2.65;;;22.10;99.90;;;;;;5069415;28;20066;-73
2021/06/28 07:28:06;;;;;;;5.32;2.80;;;22.10;99.90;;;;;;5069513;28;20028;-73
2021/06/28 07:30:32;;;;;;;4.78;2.83;;;22.20;99.90;;;;;;5069102;28;20024;-73
2021/06/28 07:32:58;;;;;;;3.83;3.05;;;22.20;99.90;;;;;;5070544;28;20028;-77
2021/06/28 07:35:23;;;;;;;4.40;3.10;;;22.20;99.90;;;;;;5073730;28;20059;-79
2021/06/28 07:37:49;;;;;;;3.20;2.90;;;22.30;99.90;;;;;;5072982;28;20036;-76
2021/06/28 07:40:19;;;;;;;3.67;2.80;;;22.30;99.90;;;;;;5073271;28;20487;-76
2021/06/28 07:42:47;;;;;;;3.70;2.97;;;22.30;99.90;;;;;;5073098;28;20024;-77
2021/06/28 07:45:13;;;;;;;3.47;2.80;;;22.30;99.90;;;;;;5073876;28;20342;-76
2021/06/28 07:47:40;;;;;;;5.10;2.88;;;22.40;99.90;;;;;;5073563;28;20047;-72
2021/06/28 07:50:07;;;;;;;3.05;2.75;;;22.30;99.90;;;;;;5072240;28;20032;-74
2021/06/28 07:52:34;;;;;;;3.85;2.80;;;22.40;99.90;;;;;;5071718;28;20024;-74
2021/06/28 07:55:00;;;;;;;5.18;2.90;;;22.40;99.90;;;;;;5072870;28;20044;-78
2021/06/28 07:57:26;;;;;;;3.28;2.92;;;22.50;99.90;;;;;;5072612;28;20025;-74
2021/06/28 07:59:52;;;;;;;4.43;3.00;;;22.50;99.90;;;;;;5071757;28;20044;-75
2021/06/28 08:02:17;;;;;;;8.40;3.47;;;22.50;99.90;;;;;;5092435;28;20028;-73
2021/06/28 08:04:43;;;;;;;3.60;3.28;;;22.50;99.90;;;;;;5085344;28;20096;-75
2021/06/28 08:07:08;;;;;;;5.47;3.67;;;22.50;99.90;;;;;;5076771;28;20025;-74
2021/06/28 08:09:34;;;;;;;3.80;3.40;;;22.50;99.90;;;;;;5073562;28;20051;-75
2021/06/28 08:12:00;;;;;;;5.05;3.63;;;22.50;99.90;;;;;;5073957;28;20036;-73
2021/06/28 08:14:26;;;;;;;6.00;3.67;;;22.60;99.90;;;;;;5074415;28;20028;-75
2021/06/28 08:16:51;;;;;;;4.03;3.28;;;22.60;99.90;;;;;;5073502;28;20060;-78
2021/06/28 08:19:17;;;;;;;5.13;3.47;;;22.60;99.90;;;;;;5073715;28;20029;-74
2021/06/28 08:21:43;;;;;;;5.93;3.40;;;22.60;99.90;;;;;;5073159;28;20020;-76
2021/06/28 08:24:09;;;;;;;4.25;3.25;;;22.60;99.90;;;;;;5089928;28;20039;-76
2021/06/28 08:26:38;;;;;;;4.13;3.10;;;22.60;99.90;;;;;;5083977;28;20028;-74
2021/06/28 08:29:06;;;;;;;4.25;3.47;;;22.60;99.90;;;;;;5074372;28;20046;-73
2021/06/28 08:31:33;;;;;;;3.30;2.80;;;22.60;99.90;;;;;;5072670;28;20060;-74
2021/06/28 08:33:58;;;;;;;4.18;3.42;;;22.60;99.90;;;;;;5073574;28;20476;-74
2021/06/28 08:36:24;;;;;;;5.57;3.25;;;22.70;99.90;;;;;;5073813;28;20025;-73
2021/06/28 08:38:50;;;;;;;3.92;3.42;;;22.70;99.90;;;;;;5072900;28;20603;-74
2021/06/28 08:41:17;;;;;;;3.47;2.72;;;22.70;99.90;;;;;;5087010;28;20475;-76
2021/06/28 08:43:46;;;;;;;4.85;3.08;;;22.70;99.90;;;;;;5092711;28;20027;-78
2021/06/28 08:46:13;;;;;;;6.00;3.17;;;22.70;99.90;;;;;;5092659;28;20016;-77
2021/06/28 08:48:42;;;;;;;4.10;3.08;;;22.80;99.90;;;;;;5074265;28;20539;-75
2021/06/28 08:51:09;;;;;;;3.35;2.85;;;22.70;99.90;;;;;;5072977;28;20107;-73
2021/06/28 08:53:35;;;;;;;4.97;3.00;;;22.80;99.90;;;;;;5072887;28;20077;-73
2021/06/28 08:56:07;;;;;;;4.35;3.20;;;22.80;99.90;;;;;;5073028;28;20031;-73
2021/06/28 08:58:37;;;;;;;4.05;3.10;;;22.80;99.90;;;;;;5072660;28;20052;-74
2021/06/28 09:01:03;;;;;;;4.45;3.03;;;22.80;99.90;;;;;;5073117;28;20456;-72
2021/06/28 09:03:29;;;;;;;5.30;3.08;;;22.80;99.90;;;;;;5072845;28;20445;-74
2021/06/28 09:06:05;;;;;;;4.90;2.90;;;22.80;99.90;;;;;;5076785;28;20063;-72
2021/06/28 09:08:32;;;;;;;4.00;2.80;;;22.80;99.90;;;;;;5072407;28;20036;-75
2021/06/28 09:10:58;;;;;;;4.15;2.88;;;22.80;99.90;;;;;;5072928;28;20374;-75
2021/06/28 09:13:36;;;;;;;3.50;3.00;;;22.80;99.90;;;;;;5072857;28;20032;-76
2021/06/28 09:16:23;;;;;;;3.42;3.05;;;22.90;99.90;;;;;;5073946;28;20033;-74
2021/06/28 09:19:04;;;;;;;5.32;3.05;;;22.90;99.90;;;;;;5072530;28;20032;-77
2021/06/28 09:21:45;;;;;;;4.75;3.00;;;22.90;99.90;;;;;;5072548;28;20492;-73
2021/06/28 09:24:36;;;;;;;4.07;3.13;;;22.90;99.90;;;;;;5072563;28;20127;-75
2021/06/28 09:27:11;;;;;;;4.47;2.80;;;22.90;99.90;;;;;;5075611;28;20054;-75
2021/06/28 09:29:52;;;;;;;4.57;3.30;;;22.90;99.90;;;;;;5071766;28;20050;-73
2021/06/28 09:32:20;;;;;;;5.30;3.10;;;22.90;99.90;;;;;;5072497;28;20031;-76
2021/06/28 09:34:47;;;;;;;3.28;2.72;;;22.90;99.90;;;;;;5072242;28;20028;-74
2021/06/28 09:37:18;;;;;;;3.40;3.10;;;22.90;99.90;;;;;;5072387;28;20074;-74
2021/06/28 09:39:49;;;;;;;5.50;3.15;;;22.90;99.90;;;;;;5071868;28;20056;-73
2021/06/28 09:42:24;;;;;;;3.65;3.35;;;23.00;99.90;;;;;;5072073;28;20021;-76
2021/06/28 09:44:51;;;;;;;4.25;3.50;;;23.00;99.90;;;;;;5072036;28;20032;-75
2021/06/28 09:47:18;;;;;;;4.45;3.10;;;23.00;99.90;;;;;;5071436;28;20366;-74
2021/06/28 09:50:10;;;;;;;3.90;3.53;;;23.00;99.90;;;;;;5071429;28;20050;-75
2021/06/28 09:52:45;;;;;;;4.93;3.55;;;23.00;99.90;;;;;;5071760;28;20024;-77
2021/06/28 09:55:35;;;;;;;4.43;3.47;;;23.00;99.90;;;;;;5071939;28;20033;-75
2021/06/28 09:58:13;;;;;;;4.50;3.28;;;23.00;99.90;;;;;;5071961;28;20020;-76
2021/06/28 10:00:42;;;;;;;5.72;3.70;;;23.00;99.90;;;;;;5071651;28;20025;-75
2021/06/28 10:03:32;;;;;;;4.70;3.92;;;23.10;99.90;;;;;;5071876;28;20024;-73
2021/06/28 10:06:09;;;;;;;3.90;3.50;;;23.10;99.90;;;;;;5073643;28;20024;-75
2021/06/28 10:08:37;;;;;;;4.18;3.55;;;23.10;99.90;;;;;;5071477;28;20028;-73
2021/06/28 10:11:17;;;;;;;4.97;3.70;;;23.00;99.90;;;;;;5071435;28;20033;-72
2021/06/28 10:14:04;;;;;;;4.32;3.95;;;23.00;99.90;;;;;;5081564;28;20032;-70
2021/06/28 10:16:32;;;;;;;3.63;3.30;;;23.00;99.90;;;;;;5052005;28;20029;-71
2021/06/28 10:18:59;;;;;;;3.97;3.35;;;23.00;99.90;;;;;;5051918;28;20036;-71
2021/06/28 10:21:26;;;;;;;4.30;3.65;;;23.00;99.90;;;;;;5057604;28;20032;-70
2021/06/28 10:23:52;;;;;;;4.35;3.95;;;23.00;99.90;;;;;;5070604;28;20392;-66
2021/06/28 10:26:18;;;;;;;4.28;3.58;;;23.00;99.90;;;;;;5069886;28;20028;-71
2021/06/28 10:28:44;;;;;;;4.70;3.50;;;23.00;99.90;;;;;;5068222;28;20484;-70
2021/06/28 10:31:11;;;;;;;5.93;3.53;;;23.10;99.90;;;;;;5068596;28;20024;-73
2021/06/28 10:33:39;;;;;;;7.18;3.60;;;23.00;99.90;;;;;;5069955;28;20044;-72
2021/06/28 10:36:08;;;;;;;3.78;3.30;;;23.10;99.90;;;;;;5070022;28;20068;-71
2021/06/28 10:38:55;;;;;;;4.03;3.72;;;23.00;99.90;;;;;;5066069;28;20393;-69
2021/06/28 10:41:41;;;;;;;4.80;3.83;;;23.00;99.90;;;;;;5085182;28;20039;-71
2021/06/28 10:44:12;;;;;;;5.13;4.20;;;23.00;99.90;;;;;;5085487;28;20066;-75
2021/06/28 10:46:40;;;;;;;4.75;4.22;;;23.10;99.90;;;;;;5070650;28;20025;-76
2021/06/28 10:49:07;;;;;;;6.15;4.30;;;23.00;99.90;;;;;;5071345;28;20123;-70
2021/06/28 10:51:37;;;;;;;6.43;4.20;;;23.00;99.90;;;;;;5072299;28;20032;-76
2021/06/28 10:54:04;;;;;;;4.75;4.25;;;23.00;99.90;;;;;;5070319;28;20063;-72
2021/06/28 10:56:33;;;;;;;5.18;4.40;;;23.00;99.90;;;;;;5071556;28;20032;-73
2021/06/28 10:59:01;;;;;;;5.82;4.18;;;23.00;99.90;;;;;;5071533;28;20012;-75
2021/06/28 11:01:33;;;;;;;9.95;4.78;;;23.00;99.90;;;;;;5074765;28;20029;-77
2021/06/28 11:04:10;;;;;;;6.50;4.20;;;23.00;99.90;;;;;;5071180;28;20395;-77
2021/06/28 11:06:37;;;;;;;5.57;5.03;;;23.00;99.90;;;;;;5071144;28;20153;-72
2021/06/28 11:09:08;;;;;;;7.35;5.10;;;23.00;99.90;;;;;;5073307;28;20040;-80
2021/06/28 11:11:43;;;;;;;7.63;5.20;;;23.10;99.90;;;;;;5089003;28;20028;-76
2021/06/28 11:14:21;;;;;;;9.43;5.40;;;23.10;99.90;;;;;;5095397;28;20028;-71
2021/06/28 11:17:08;;;;;;;6.88;5.32;;;23.10;99.90;;;;;;5093602;28;20028;-74
2021/06/28 11:19:53;;;;;;;10.05;5.20;;;23.10;99.90;;;;;;5094807;28;20140;-72
2021/06/28 11:22:28;;;;;;;9.80;7.65;;;23.10;99.90;;;;;;5073607;28;20126;-73
2021/06/28 11:25:05;;;;;;;8.40;5.68;;;23.10;99.90;;;;;;5073208;28;20479;-77
2021/06/28 11:27:31;;;;;;;8.00;6.03;;;23.10;99.90;;;;;;5071969;28;20036;-72
2021/06/28 11:29:57;;;;;;;7.80;5.15;;;23.10;99.90;;;;;;5064674;28;20087;-71
2021/06/28 11:32:31;;;;;;;8.65;5.30;;;23.10;99.90;;;;;;5063222;28;20101;-71
2021/06/28 11:34:58;;;;;;;10.00;5.93;;;23.10;99.90;;;;;;5073636;28;20106;-74
2021/06/28 11:37:25;;;;;;;8.85;6.07;;;23.10;99.90;;;;;;5071474;28;20021;-70
2021/06/28 11:40:01;;;;;;;12.20;6.05;;;23.10;99.90;;;;;;5071896;28;20440;-71
2021/06/28 11:42:37;;;;;;;8.82;5.63;;;23.10;99.90;;;;;;5071226;28;20024;-75
2021/06/28 11:45:11;;;;;;;7.82;5.43;;;23.10;99.90;;;;;;5073145;28;20041;-74
2021/06/28 11:47:48;;;;;;;6.68;5.35;;;23.10;99.90;;;;;;5071790;28;20060;-75
2021/06/28 11:50:36;;;;;;;8.75;5.72;;;23.10;99.90;;;;;;5072988;28;20039;-74
2021/06/28 11:53:08;;;;;;;7.28;5.15;;;23.10;99.90;;;;;;5071006;28;20423;-70
2021/06/28 11:55:35;;;;;;;6.30;5.70;;;23.10;99.90;;;;;;5070863;28;20476;-76
2021/06/28 11:58:01;;;;;;;6.50;5.57;;;23.10;99.90;;;;;;5070698;28;20024;-69
2021/06/28 12:00:27;;;;;;;6.30;5.35;;;23.10;99.90;;;;;;5072997;28;20021;-68
2021/06/28 12:03:36;;;;;;;6.32;5.40;;;23.10;99.90;;;;;;5073837;28;20107;-66
2021/06/28 12:06:07;;;;;;;6.75;5.05;;;23.20;99.90;;;;;;5052075;28;20029;-77
2021/06/28 12:08:33;;;;;;;7.05;5.43;;;23.20;99.90;;;;;;5071521;28;20044;-70
2021/06/28 12:11:00;;;;;;;6.15;5.13;;;23.20;99.90;;;;;;5074029;28;20025;-77
2021/06/28 12:13:28;;;;;;;7.22;5.55;;;23.20;99.90;;;;;;5073782;28;20028;-79
2021/06/28 12:15:54;;;;;;;5.90;5.05;;;23.20;99.90;;;;;;5073692;28;20020;-79
2021/06/28 12:18:20;;;;;;;6.70;4.95;;;23.20;99.90;;;;;;5073923;28;20039;-77
2021/06/28 12:20:58;;;;;;;6.25;5.47;;;23.20;99.90;;;;;;5072566;28;20027;-78
2021/06/28 12:23:24;;;;;;;6.43;5.32;;;23.20;99.90;;;;;;5073838;28;20078;-67
2021/06/28 12:25:50;;;;;;;6.18;5.05;;;23.20;99.90;;;;;;5073691;28;20357;-69
2021/06/28 12:28:25;;;;;;;6.35;5.28;;;23.20;99.90;;;;;;5073261;28;20039;-70
2021/06/28 12:30:51;;;;;;;6.50;5.57;;;23.30;99.90;;;;;;5072565;28;20025;-73
2021/06/28 12:33:17;;;;;;;8.23;5.90;;;23.30;99.90;;;;;;5073835;28;20101;-73
2021/06/28 12:35:43;;;;;;;8.13;5.22;;;23.30;99.90;;;;;;5073311;28;20031;-78
2021/06/28 12:38:13;;;;;;;5.40;4.90;;;23.30;99.90;;;;;;5073477;28;20020;-76
2021/06/28 12:40:42;;;;;;;5.78;5.25;;;23.30;99.90;;;;;;5073124;28;20048;-74
2021/06/28 12:43:13;;;;;;;6.43;5.03;;;23.30;99.90;;;;;;5076624;28;20047;-79
2021/06/28 12:45:42;;;;;;;5.35;4.85;;;23.30;99.90;;;;;;5093441;28;20388;-74
2021/06/28 12:48:14;;;;;;;6.28;5.13;;;23.30;99.90;;;;;;5090591;28;20040;-76
2021/06/28 12:50:40;;;;;;;5.85;4.85;;;23.40;99.90;;;;;;5072055;28;20024;-72